Terminal Aerodrome Forecast
Issued by NWS Billings, MT

Home | Current Version | Previous Version | Text Only | Print | Product List | Glossary On
Versions: 1 2 3 4 5 6 7 8 9 10 11 12 13 14
000
FTUS45 KBYZ 290527
TAFSHR
TAF
KSHR 290527Z 2906/3006 27008KT P6SM VCSH SCT080 BKN120
     FM290800 30006KT P6SM SCT100
     FM291800 34014KT P6SM FEW100
     FM300000 VRB04KT P6SM FEW200=

USA.gov is the U.S. government's official web portal to all federal, state and local government web resources and services.